createdAt,value
2023-03-30T00:00:00.778Z,100.00
2023-03-30T00:02:31.247Z,100.00
2023-03-30T00:05:03.373Z,100.00
2023-03-30T00:07:32.185Z,100.00
2023-03-30T00:10:03.590Z,100.00
2023-03-30T00:12:32.480Z,100.00
2023-03-30T00:15:01.047Z,100.00
2023-03-30T00:17:29.872Z,100.00
2023-03-30T00:20:02.070Z,100.00
2023-03-30T00:22:30.677Z,100.00
2023-03-30T00:24:59.223Z,100.00
2023-03-30T00:27:27.813Z,100.00
2023-03-30T00:29:56.558Z,100.00
2023-03-30T00:32:25.195Z,100.00
2023-03-30T00:34:53.831Z,100.00
2023-03-30T00:37:24.155Z,100.00
2023-03-30T00:39:54.240Z,100.00
2023-03-30T00:42:23.452Z,100.00
2023-03-30T00:45:18.395Z,100.00
2023-03-30T00:47:51.514Z,100.00
2023-03-30T00:50:22.949Z,100.00
2023-03-30T00:52:56.856Z,100.00
2023-03-30T00:55:29.138Z,100.00
2023-03-30T00:57:57.947Z,100.00
2023-03-30T01:00:26.558Z,100.00
2023-03-30T01:02:59.345Z,100.00
2023-03-30T01:05:29.032Z,100.00
2023-03-30T01:08:00.236Z,100.00
2023-03-30T01:10:28.795Z,100.00
2023-03-30T01:12:57.485Z,100.00
2023-03-30T01:15:26.875Z,100.00
2023-03-30T01:18:08.936Z,100.00
2023-03-30T01:21:10.102Z,100.00
2023-03-30T01:24:22.236Z,100.00
2023-03-30T01:26:55.359Z,100.00
2023-03-30T01:29:51.330Z,98.41
2023-03-30T01:33:04.710Z,100.00
2023-03-30T01:36:03.422Z,100.00
2023-03-30T01:39:10.999Z,100.00
2023-03-30T01:41:51.617Z,100.00
2023-03-30T01:44:30.478Z,98.08
2023-03-30T01:47:07.277Z,100.00
2023-03-30T01:49:42.881Z,100.00
2023-03-30T01:52:19.106Z,99.31
2023-03-30T01:54:52.178Z,97.96
2023-03-30T01:57:28.107Z,99.29
2023-03-30T01:59:59.868Z,99.94
2023-03-30T02:02:32.844Z,98.75
2023-03-30T02:05:05.183Z,99.75
2023-03-30T02:07:36.711Z,99.60
2023-03-30T02:10:10.185Z,100.00
2023-03-30T02:12:41.021Z,98.28
2023-03-30T02:15:13.077Z,96.32
2023-03-30T02:17:42.488Z,96.42
2023-03-30T02:20:12.524Z,96.75
2023-03-30T02:22:41.402Z,97.37
2023-03-30T02:25:10.660Z,99.67
2023-03-30T02:27:42.176Z,98.06
2023-03-30T02:30:11.698Z,95.72
2023-03-30T02:32:44.165Z,95.32
2023-03-30T02:35:38.122Z,96.45
2023-03-30T02:38:28.861Z,93.66
2023-03-30T02:41:08.772Z,93.95
2023-03-30T02:43:46.882Z,96.02
2023-03-30T02:46:29.228Z,94.31
2023-03-30T02:49:14.205Z,93.99
2023-03-30T02:51:48.137Z,93.75
2023-03-30T02:54:26.718Z,97.89
2023-03-30T02:57:05.019Z,97.89
2023-03-30T02:59:41.697Z,92.52
2023-03-30T03:02:18.167Z,94.52
2023-03-30T03:04:49.517Z,98.38
2023-03-30T03:07:20.519Z,92.82
2023-03-30T03:09:49.317Z,96.06
2023-03-30T03:12:17.896Z,94.67
2023-03-30T03:14:47.879Z,90.11
2023-03-30T03:17:22.199Z,96.09
2023-03-30T03:19:51.188Z,95.02
2023-03-30T03:22:19.796Z,89.72
2023-03-30T03:24:48.363Z,95.43
2023-03-30T03:27:16.972Z,92.04
2023-03-30T03:29:47.514Z,93.21
2023-03-30T03:32:16.297Z,93.48
2023-03-30T03:34:45.910Z,95.76
2023-03-30T03:37:14.594Z,92.08
2023-03-30T03:39:43.159Z,93.65
2023-03-30T03:42:11.714Z,90.29
2023-03-30T03:44:40.689Z,92.42
2023-03-30T03:47:14.557Z,93.82
2023-03-30T03:49:45.056Z,86.91
2023-03-30T03:52:13.601Z,92.77
2023-03-30T03:54:42.200Z,90.91
2023-03-30T03:57:10.801Z,94.74
2023-03-30T03:59:39.388Z,94.03
2023-03-30T04:02:09.374Z,88.73
2023-03-30T04:04:38.047Z,94.74
2023-03-30T04:07:06.733Z,95.38
2023-03-30T04:09:35.726Z,95.68
2023-03-30T04:12:04.390Z,94.16
2023-03-30T04:14:33.545Z,92.71
2023-03-30T04:17:02.684Z,92.40
2023-03-30T04:19:32.639Z,92.08
2023-03-30T04:22:01.172Z,89.18
2023-03-30T04:24:30.506Z,91.01
2023-03-30T04:26:59.077Z,90.81
2023-03-30T04:29:27.629Z,93.06
2023-03-30T04:31:56.746Z,92.72
2023-03-30T04:34:26.780Z,92.34
2023-03-30T04:36:58.088Z,92.35
2023-03-30T04:39:30.373Z,91.85
2023-03-30T04:42:02.725Z,92.24
2023-03-30T04:44:31.548Z,92.46
2023-03-30T04:47:00.141Z,92.31
2023-03-30T04:49:28.681Z,91.12
2023-03-30T04:51:58.613Z,87.71
2023-03-30T04:54:27.218Z,94.67
2023-03-30T04:56:55.801Z,92.11
2023-03-30T04:59:24.378Z,95.50
2023-03-30T05:01:53.092Z,94.10
2023-03-30T05:04:21.707Z,93.51
2023-03-30T05:06:50.766Z,93.63
2023-03-30T05:09:21.552Z,93.27
2023-03-30T05:11:51.458Z,93.01
2023-03-30T05:14:20.102Z,89.92
2023-03-30T05:16:48.758Z,93.19
2023-03-30T05:19:17.411Z,94.02
2023-03-30T05:21:46.030Z,90.63
2023-03-30T05:24:14.784Z,93.01
2023-03-30T05:26:44.728Z,96.10
2023-03-30T05:29:13.323Z,93.49
2023-03-30T05:31:41.974Z,92.04
2023-03-30T05:34:11.339Z,94.41
2023-03-30T05:36:39.898Z,94.93
2023-03-30T05:39:09.144Z,95.20
2023-03-30T05:41:37.780Z,96.78
2023-03-30T05:44:07.822Z,98.30
2023-03-30T05:46:36.457Z,96.19
2023-03-30T05:49:05.097Z,94.86
2023-03-30T05:51:33.665Z,96.97
2023-03-30T05:54:02.288Z,94.97
2023-03-30T05:56:31.000Z,95.10
2023-03-30T05:58:59.579Z,92.47
2023-03-30T06:01:29.551Z,94.19
2023-03-30T06:03:58.336Z,95.30
2023-03-30T06:06:27.176Z,91.41
2023-03-30T06:08:55.890Z,93.67
2023-03-30T06:11:24.629Z,92.48
2023-03-30T06:13:53.170Z,93.25
2023-03-30T06:16:22.070Z,92.24
2023-03-30T06:18:52.189Z,92.61
2023-03-30T06:21:20.889Z,94.67
2023-03-30T06:23:49.493Z,92.68
2023-03-30T06:26:18.090Z,93.42
2023-03-30T06:28:46.655Z,93.10
2023-03-30T06:31:15.432Z,93.00
2023-03-30T06:33:44.461Z,89.68
2023-03-30T06:36:15.600Z,93.58
2023-03-30T06:38:44.766Z,91.37
2023-03-30T06:41:14.560Z,91.32
2023-03-30T06:43:43.351Z,92.14
2023-03-30T06:46:12.648Z,96.29
2023-03-30T06:48:41.993Z,94.01
2023-03-30T06:51:13.010Z,93.64
2023-03-30T06:53:43.128Z,93.46
2023-03-30T06:56:12.933Z,94.04
2023-03-30T06:58:41.587Z,93.62
2023-03-30T07:01:11.446Z,93.16
2023-03-30T07:03:41.298Z,94.09
2023-03-30T07:06:10.519Z,91.83
2023-03-30T07:08:40.392Z,95.06
2023-03-30T07:11:10.435Z,93.22
2023-03-30T07:13:39.285Z,92.34
2023-03-30T07:16:08.523Z,92.41
2023-03-30T07:18:37.156Z,91.36
2023-03-30T07:21:06.509Z,92.27
2023-03-30T07:23:35.922Z,96.10
2023-03-30T07:26:04.611Z,96.09
2023-03-30T07:28:34.566Z,95.70
2023-03-30T07:31:07.921Z,97.25
2023-03-30T07:33:37.647Z,94.82
2023-03-30T07:36:07.262Z,96.41
2023-03-30T07:38:36.098Z,97.25
2023-03-30T07:41:09.351Z,100.00
2023-03-30T07:43:40.578Z,100.00
2023-03-30T07:46:09.621Z,100.00
2023-03-30T07:48:38.247Z,100.00
2023-03-30T07:51:09.211Z,100.00
2023-03-30T07:53:38.251Z,100.00
2023-03-30T07:56:07.823Z,100.00
2023-03-30T07:58:37.096Z,100.00
2023-03-30T08:01:07.345Z,100.00
2023-03-30T08:03:37.207Z,100.00
2023-03-30T08:06:06.599Z,100.00
2023-03-30T08:08:38.808Z,100.00
2023-03-30T08:11:09.059Z,100.00
2023-03-30T08:13:37.865Z,100.00
2023-03-30T08:16:09.146Z,100.00
2023-03-30T08:18:38.216Z,100.00
2023-03-30T08:21:07.315Z,100.00
2023-03-30T08:23:36.095Z,100.00
2023-03-30T08:26:05.038Z,100.00
2023-03-30T08:28:34.152Z,100.00
2023-03-30T08:31:08.443Z,100.00
2023-03-30T08:33:37.272Z,100.00
2023-03-30T08:36:06.329Z,100.00
2023-03-30T08:38:35.122Z,100.00
2023-03-30T08:41:20.672Z,100.00
2023-03-30T08:43:53.963Z,100.00
2023-03-30T08:46:24.301Z,96.37
2023-03-30T08:48:54.698Z,96.37
2023-03-30T08:51:26.245Z,99.24
2023-03-30T08:53:58.175Z,100.00
2023-03-30T08:56:30.737Z,100.00
2023-03-30T08:59:13.734Z,100.00
2023-03-30T09:01:52.656Z,100.00
2023-03-30T09:04:28.434Z,96.00
2023-03-30T09:07:04.048Z,95.34
2023-03-30T09:09:38.669Z,94.64
2023-03-30T09:12:17.727Z,93.97
2023-03-30T09:14:50.794Z,96.31
2023-03-30T09:17:24.422Z,98.86
2023-03-30T09:19:57.278Z,98.73
2023-03-30T09:22:33.419Z,100.00
2023-03-30T09:25:02.087Z,98.60
2023-03-30T09:27:39.940Z,99.99
2023-03-30T09:30:19.757Z,100.00
2023-03-30T09:33:01.038Z,100.00
2023-03-30T09:35:40.420Z,98.13
2023-03-30T09:38:14.249Z,95.31
2023-03-30T09:41:07.216Z,93.62
2023-03-30T09:43:41.962Z,93.43
2023-03-30T09:46:10.779Z,92.21
2023-03-30T09:48:45.778Z,89.20
2023-03-30T09:51:24.631Z,90.75
2023-03-30T09:53:59.408Z,91.48
2023-03-30T09:56:36.038Z,98.03
2023-03-30T09:59:22.992Z,99.69
2023-03-30T10:01:51.371Z,100.00
2023-03-30T10:04:21.476Z,100.00
2023-03-30T10:06:51.766Z,100.00
2023-03-30T10:09:24.740Z,100.00
2023-03-30T10:11:56.159Z,100.00
2023-03-30T10:14:33.898Z,98.16
2023-03-30T10:17:03.771Z,96.90
2023-03-30T10:19:38.340Z,100.00
2023-03-30T10:22:18.870Z,100.00
2023-03-30T10:24:57.055Z,100.00
2023-03-30T10:27:33.836Z,100.00
2023-03-30T10:30:12.148Z,98.92
2023-03-30T10:32:45.633Z,100.00
2023-03-30T10:35:23.102Z,98.65
2023-03-30T10:37:54.617Z,98.39
2023-03-30T10:40:28.098Z,95.59
2023-03-30T10:42:59.334Z,94.19
2023-03-30T10:45:33.943Z,87.44
2023-03-30T10:48:21.833Z,82.58
2023-03-30T10:50:57.543Z,86.28
2023-03-30T10:53:41.463Z,89.33
2023-03-30T10:56:24.297Z,90.48
2023-03-30T10:59:22.636Z,88.49
2023-03-30T11:02:20.242Z,90.43
2023-03-30T11:04:59.987Z,85.94
2023-03-30T11:07:36.857Z,89.63
2023-03-30T11:10:14.758Z,84.42
2023-03-30T11:12:49.197Z,84.79
2023-03-30T11:15:26.491Z,81.16
2023-03-30T11:18:03.820Z,79.62
2023-03-30T11:20:36.498Z,79.00
2023-03-30T11:23:15.077Z,85.00
2023-03-30T11:25:58.973Z,85.53
2023-03-30T11:28:50.572Z,86.42
2023-03-30T11:31:34.559Z,94.25
2023-03-30T11:34:14.618Z,100.00
2023-03-30T11:36:51.381Z,100.00
2023-03-30T11:39:32.085Z,100.00
2023-03-30T11:42:14.716Z,100.00
2023-03-30T11:44:43.454Z,93.32
2023-03-30T11:47:31.765Z,79.51
2023-03-30T11:50:14.974Z,83.83
2023-03-30T11:52:55.141Z,84.52
2023-03-30T11:55:40.532Z,84.77
2023-03-30T11:58:18.785Z,82.19
2023-03-30T12:01:05.035Z,79.91
2023-03-30T12:03:42.421Z,80.54
2023-03-30T12:06:31.550Z,84.51
2023-03-30T12:09:26.354Z,78.26
2023-03-30T12:12:06.257Z,80.81
2023-03-30T12:15:01.875Z,88.33
2023-03-30T12:17:50.685Z,86.23
2023-03-30T12:20:42.949Z,93.63
2023-03-30T12:23:32.446Z,95.84
2023-03-30T12:26:20.420Z,99.80
2023-03-30T12:29:36.050Z,100.00
2023-03-30T12:32:06.987Z,100.00
2023-03-30T12:34:38.066Z,100.00
2023-03-30T12:37:13.330Z,95.71
2023-03-30T12:39:48.937Z,100.00
2023-03-30T12:42:34.520Z,100.00
2023-03-30T12:45:32.111Z,100.00
2023-03-30T12:48:30.556Z,100.00
2023-03-30T12:51:13.756Z,100.00
2023-03-30T12:54:19.747Z,100.00
2023-03-30T12:56:57.977Z,100.00
2023-03-30T12:59:53.607Z,100.00
2023-03-30T13:02:55.188Z,100.00
2023-03-30T13:05:31.230Z,100.00
2023-03-30T13:08:06.065Z,100.00
2023-03-30T13:10:52.327Z,100.00
2023-03-30T13:13:45.701Z,100.00
2023-03-30T13:16:14.538Z,100.00
2023-03-30T13:18:54.905Z,100.00
2023-03-30T13:21:26.083Z,100.00
2023-03-30T13:24:05.589Z,100.00
2023-03-30T13:26:45.820Z,100.00
2023-03-30T13:29:17.344Z,100.00
2023-03-30T13:32:04.861Z,100.00
2023-03-30T13:35:26.746Z,100.00
2023-03-30T13:38:25.178Z,100.00
2023-03-30T13:41:06.231Z,100.00
2023-03-30T13:43:52.183Z,100.00
2023-03-30T13:46:30.542Z,100.00
2023-03-30T13:49:26.348Z,100.00
2023-03-30T13:52:03.778Z,100.00
2023-03-30T13:54:35.442Z,100.00
2023-03-30T13:57:09.578Z,100.00
2023-03-30T13:59:43.475Z,100.00
2023-03-30T14:02:18.470Z,100.00
2023-03-30T14:04:49.135Z,100.00
2023-03-30T14:07:21.976Z,100.00
2023-03-30T14:10:07.522Z,100.00
2023-03-30T14:12:39.543Z,100.00
2023-03-30T14:15:21.058Z,100.00
2023-03-30T14:17:52.322Z,100.00
2023-03-30T14:20:45.265Z,100.00
2023-03-30T14:23:20.469Z,100.00
2023-03-30T14:25:48.998Z,100.00
2023-03-30T14:28:20.057Z,100.00
2023-03-30T14:30:53.730Z,100.00
2023-03-30T14:33:24.584Z,100.00
2023-03-30T14:35:56.499Z,100.00
2023-03-30T14:38:30.148Z,100.00
2023-03-30T14:40:59.243Z,100.00
2023-03-30T14:43:32.348Z,100.00
2023-03-30T14:46:05.983Z,100.00
2023-03-30T14:48:37.488Z,100.00
2023-03-30T14:51:20.350Z,100.00
2023-03-30T14:53:50.930Z,100.00
2023-03-30T14:56:21.336Z,93.27
2023-03-30T14:58:52.311Z,96.69
2023-03-30T15:01:25.642Z,95.33
2023-03-30T15:03:54.740Z,94.02
2023-03-30T15:06:26.943Z,94.22
2023-03-30T15:09:02.585Z,91.74
2023-03-30T15:11:34.061Z,92.73
2023-03-30T15:14:09.699Z,88.83
2023-03-30T15:16:39.717Z,91.19
2023-03-30T15:19:14.035Z,91.45
2023-03-30T15:21:43.325Z,93.78
2023-03-30T15:24:18.108Z,100.00
2023-03-30T15:26:50.458Z,100.00
2023-03-30T15:29:21.349Z,100.00
2023-03-30T15:32:01.874Z,100.00
2023-03-30T15:34:30.235Z,100.00
2023-03-30T15:36:58.832Z,100.00
2023-03-30T15:39:34.034Z,100.00
2023-03-30T15:42:05.468Z,100.00
2023-03-30T15:44:37.613Z,100.00
2023-03-30T15:47:11.073Z,100.00
2023-03-30T15:49:47.398Z,100.00
2023-03-30T15:52:24.485Z,100.00
2023-03-30T15:54:56.165Z,100.00
2023-03-30T15:57:29.449Z,100.00
2023-03-30T16:00:01.405Z,100.00
2023-03-30T16:02:40.738Z,100.00
2023-03-30T16:05:18.442Z,100.00
2023-03-30T16:07:47.193Z,100.00
2023-03-30T16:10:20.703Z,100.00
2023-03-30T16:12:49.568Z,100.00
2023-03-30T16:15:20.834Z,100.00
2023-03-30T16:17:49.261Z,100.00
2023-03-30T16:20:20.822Z,100.00
2023-03-30T16:22:50.234Z,100.00
2023-03-30T16:25:25.941Z,100.00
2023-03-30T16:27:59.780Z,100.00
2023-03-30T16:30:34.130Z,100.00
2023-03-30T16:33:02.826Z,100.00
2023-03-30T16:35:32.028Z,100.00
2023-03-30T16:38:00.565Z,100.00
2023-03-30T16:40:35.732Z,100.00
2023-03-30T16:43:04.403Z,100.00
2023-03-30T16:45:34.002Z,100.00
2023-03-30T16:48:02.610Z,100.00
2023-03-30T16:50:38.476Z,100.00
2023-03-30T16:53:08.851Z,100.00
2023-03-30T16:55:39.278Z,100.00
2023-03-30T16:58:10.675Z,100.00
2023-03-30T17:00:43.547Z,100.00
2023-03-30T17:03:11.993Z,100.00
2023-03-30T17:05:40.683Z,100.00
2023-03-30T17:08:17.219Z,100.00
2023-03-30T17:10:46.864Z,100.00
2023-03-30T17:13:15.356Z,100.00
2023-03-30T17:15:43.936Z,100.00
2023-03-30T17:18:16.983Z,100.00
2023-03-30T17:20:48.450Z,100.00
2023-03-30T17:23:17.731Z,100.00
2023-03-30T17:25:49.273Z,100.00
2023-03-30T17:28:22.555Z,100.00
2023-03-30T17:30:52.071Z,100.00
2023-03-30T17:33:20.929Z,100.00
2023-03-30T17:35:52.339Z,100.00
2023-03-30T17:38:21.957Z,100.00
2023-03-30T17:40:52.233Z,100.00
2023-03-30T17:43:20.867Z,100.00
2023-03-30T17:45:49.898Z,100.00
2023-03-30T17:48:20.584Z,100.00
2023-03-30T17:50:51.081Z,100.00
2023-03-30T17:53:21.234Z,100.00
2023-03-30T17:55:53.040Z,100.00
2023-03-30T17:58:23.989Z,100.00
2023-03-30T18:00:54.193Z,100.00
2023-03-30T18:03:25.705Z,100.00
2023-03-30T18:05:54.838Z,100.00
2023-03-30T18:08:24.856Z,100.00
2023-03-30T18:10:56.591Z,100.00
2023-03-30T18:13:27.029Z,100.00
2023-03-30T18:15:57.800Z,100.00
2023-03-30T18:18:28.583Z,100.00
2023-03-30T18:20:58.992Z,100.00
2023-03-30T18:23:27.280Z,100.00
2023-03-30T18:25:56.990Z,100.00
2023-03-30T18:28:27.615Z,100.00
2023-03-30T18:31:00.645Z,100.00
2023-03-30T18:33:29.499Z,100.00
2023-03-30T18:35:58.147Z,100.00
2023-03-30T18:38:29.303Z,100.00
2023-03-30T18:40:59.256Z,100.00
2023-03-30T18:43:27.922Z,100.00
2023-03-30T18:46:00.077Z,100.00
2023-03-30T18:48:30.614Z,100.00
2023-03-30T18:50:58.981Z,100.00
2023-03-30T18:53:29.776Z,100.00
2023-03-30T18:56:01.024Z,100.00
2023-03-30T18:58:33.525Z,100.00
2023-03-30T19:01:02.442Z,100.00
2023-03-30T19:03:33.165Z,100.00
2023-03-30T19:06:01.682Z,100.00
2023-03-30T19:08:30.086Z,100.00
2023-03-30T19:10:59.825Z,100.00
2023-03-30T19:13:28.548Z,100.00
2023-03-30T19:15:58.065Z,100.00
2023-03-30T19:18:27.058Z,100.00
2023-03-30T19:20:55.597Z,100.00
2023-03-30T19:23:23.936Z,100.00
2023-03-30T19:25:52.314Z,100.00
2023-03-30T19:28:22.058Z,100.00
2023-03-30T19:30:50.582Z,100.00
2023-03-30T19:33:20.813Z,100.00
2023-03-30T19:35:49.263Z,100.00
2023-03-30T19:38:17.559Z,100.00
2023-03-30T19:40:46.006Z,100.00
2023-03-30T19:43:14.409Z,100.00
2023-03-30T19:45:44.449Z,100.00
2023-03-30T19:48:12.964Z,100.00
2023-03-30T19:50:41.258Z,100.00
2023-03-30T19:53:09.796Z,100.00
2023-03-30T19:55:38.684Z,100.00
2023-03-30T19:58:07.224Z,100.00
2023-03-30T20:00:35.623Z,100.00
2023-03-30T20:03:05.458Z,100.00
2023-03-30T20:05:33.765Z,100.00
2023-03-30T20:08:07.964Z,100.00
2023-03-30T20:10:49.995Z,100.00
2023-03-30T20:13:21.889Z,100.00
2023-03-30T20:15:54.504Z,100.00
2023-03-30T20:18:24.217Z,100.00
2023-03-30T20:20:52.740Z,100.00
2023-03-30T20:23:21.090Z,100.00
2023-03-30T20:25:52.601Z,100.00
2023-03-30T20:28:21.088Z,100.00
2023-03-30T20:30:49.462Z,100.00
2023-03-30T20:33:18.645Z,100.00
2023-03-30T20:35:51.722Z,100.00
2023-03-30T20:38:20.625Z,100.00
2023-03-30T20:40:56.819Z,100.00
2023-03-30T20:43:26.962Z,100.00
2023-03-30T20:46:02.438Z,100.00
2023-03-30T20:48:33.751Z,100.00
2023-03-30T20:51:04.193Z,100.00
2023-03-30T20:53:34.872Z,100.00
2023-03-30T20:56:05.652Z,100.00
2023-03-30T20:58:34.184Z,100.00
2023-03-30T21:01:11.316Z,100.00
2023-03-30T21:03:41.221Z,100.00
2023-03-30T21:06:12.419Z,100.00
2023-03-30T21:08:41.373Z,100.00
2023-03-30T21:11:09.965Z,100.00
2023-03-30T21:13:38.229Z,100.00
2023-03-30T21:16:08.308Z,100.00
2023-03-30T21:18:37.227Z,100.00
2023-03-30T21:21:06.065Z,100.00
2023-03-30T21:23:36.901Z,100.00
2023-03-30T21:26:08.050Z,100.00
2023-03-30T21:28:37.589Z,100.00
2023-03-30T21:31:08.635Z,100.00
2023-03-30T21:33:38.073Z,100.00
2023-03-30T21:36:07.770Z,100.00
2023-03-30T21:38:37.874Z,100.00
2023-03-30T21:41:08.205Z,100.00
2023-03-30T21:43:39.986Z,100.00
2023-03-30T21:46:11.373Z,100.00
2023-03-30T21:48:41.870Z,100.00
2023-03-30T21:51:14.057Z,100.00
2023-03-30T21:53:48.112Z,100.00
2023-03-30T21:56:17.267Z,100.00
2023-03-30T21:58:46.268Z,100.00
2023-03-30T22:01:15.225Z,100.00
2023-03-30T22:03:44.957Z,100.00
2023-03-30T22:06:16.189Z,100.00
2023-03-30T22:08:46.570Z,100.00
2023-03-30T22:11:16.616Z,100.00
2023-03-30T22:13:47.992Z,100.00
2023-03-30T22:16:19.683Z,100.00
2023-03-30T22:18:48.432Z,100.00
2023-03-30T22:21:19.235Z,100.00
2023-03-30T22:23:49.247Z,100.00
2023-03-30T22:26:17.995Z,100.00
2023-03-30T22:28:46.501Z,100.00
2023-03-30T22:31:16.791Z,100.00
2023-03-30T22:33:45.653Z,100.00
2023-03-30T22:36:19.494Z,100.00
2023-03-30T22:38:50.872Z,100.00
2023-03-30T22:41:23.863Z,100.00
2023-03-30T22:43:53.818Z,100.00
2023-03-30T22:46:23.458Z,100.00
2023-03-30T22:48:52.621Z,100.00
2023-03-30T22:51:26.018Z,100.00
2023-03-30T22:53:58.000Z,100.00
2023-03-30T22:56:27.305Z,100.00
2023-03-30T22:58:56.436Z,100.00
2023-03-30T23:01:25.110Z,100.00
2023-03-30T23:03:54.530Z,100.00
2023-03-30T23:06:22.897Z,100.00
2023-03-30T23:08:52.657Z,100.00
2023-03-30T23:11:22.611Z,100.00
2023-03-30T23:13:52.505Z,100.00
2023-03-30T23:16:20.858Z,100.00
2023-03-30T23:18:49.818Z,100.00
2023-03-30T23:21:22.217Z,100.00
2023-03-30T23:23:51.097Z,100.00
2023-03-30T23:26:21.471Z,100.00
2023-03-30T23:28:50.057Z,100.00
2023-03-30T23:31:19.209Z,100.00
2023-03-30T23:33:47.903Z,100.00
2023-03-30T23:36:17.572Z,100.00
2023-03-30T23:38:47.002Z,100.00
2023-03-30T23:41:17.402Z,100.00
2023-03-30T23:43:47.934Z,100.00
2023-03-30T23:46:16.763Z,100.00
2023-03-30T23:48:45.612Z,100.00
2023-03-30T23:51:14.158Z,100.00
2023-03-30T23:53:42.671Z,100.00
2023-03-30T23:56:13.953Z,100.00
2023-03-30T23:58:42.886Z,100.00
